sensor_id;sensor_type;location;lat;lon;timestamp;P1;durP1;ratioP1;P2;durP2;ratioP2
19006;SDS011;9636;47.382;8.480;2024-01-30T09:49:17;4.53;;;3.30;;
19006;SDS011;9636;47.382;8.480;2024-01-30T09:51:44;5.17;;;2.90;;
19006;SDS011;9636;47.382;8.480;2024-01-30T09:54:12;3.33;;;2.80;;
19006;SDS011;9636;47.382;8.480;2024-01-30T09:58:13;14.90;;;9.57;;
19006;SDS011;9636;47.382;8.480;2024-01-30T10:00:39;16.27;;;10.67;;
19006;SDS011;9636;47.382;8.480;2024-01-30T10:03:06;15.20;;;10.57;;
19006;SDS011;9636;47.382;8.480;2024-01-30T10:05:34;13.60;;;10.57;;
19006;SDS011;9636;47.382;8.480;2024-01-30T10:08:05;16.27;;;11.63;;
19006;SDS011;9636;47.382;8.480;2024-01-30T10:10:33;16.93;;;10.53;;
19006;SDS011;9636;47.382;8.480;2024-01-30T10:13:00;18.60;;;12.13;;
19006;SDS011;9636;47.382;8.480;2024-01-30T10:15:28;17.70;;;11.80;;
19006;SDS011;9636;47.382;8.480;2024-01-30T10:17:55;18.17;;;12.27;;
19006;SDS011;9636;47.382;8.480;2024-01-30T10:20:22;17.63;;;11.17;;
19006;SDS011;9636;47.382;8.480;2024-01-30T10:22:51;17.57;;;12.70;;
19006;SDS011;9636;47.382;8.480;2024-01-30T10:25:17;19.60;;;11.97;;
19006;SDS011;9636;47.382;8.480;2024-01-30T10:27:44;20.20;;;12.47;;
19006;SDS011;9636;47.382;8.480;2024-01-30T10:30:12;17.83;;;12.10;;
19006;SDS011;9636;47.382;8.480;2024-01-30T10:32:40;18.23;;;12.23;;
19006;SDS011;9636;47.382;8.480;2024-01-30T10:35:07;16.23;;;11.23;;
19006;SDS011;9636;47.382;8.480;2024-01-30T10:37:34;16.67;;;11.47;;
19006;SDS011;9636;47.382;8.480;2024-01-30T10:40:02;15.40;;;10.80;;
19006;SDS011;9636;47.382;8.480;2024-01-30T10:42:31;17.87;;;11.10;;
19006;SDS011;9636;47.382;8.480;2024-01-30T10:45:00;15.33;;;10.57;;
19006;SDS011;9636;47.382;8.480;2024-01-30T10:47:32;17.47;;;11.37;;
19006;SDS011;9636;47.382;8.480;2024-01-30T10:50:02;17.80;;;11.87;;
19006;SDS011;9636;47.382;8.480;2024-01-30T10:52:29;19.67;;;11.80;;
19006;SDS011;9636;47.382;8.480;2024-01-30T10:54:57;20.80;;;11.53;;
19006;SDS011;9636;47.382;8.480;2024-01-30T10:57:25;15.60;;;10.97;;
19006;SDS011;9636;47.382;8.480;2024-01-30T10:59:53;16.53;;;11.87;;
19006;SDS011;9636;47.382;8.480;2024-01-30T11:02:23;21.30;;;12.20;;
19006;SDS011;9636;47.382;8.480;2024-01-30T11:04:54;16.80;;;12.00;;
19006;SDS011;9636;47.382;8.480;2024-01-30T11:07:25;15.13;;;10.90;;
19006;SDS011;9636;47.382;8.480;2024-01-30T11:09:53;14.83;;;11.17;;
19006;SDS011;9636;47.382;8.480;2024-01-30T11:12:26;17.97;;;12.17;;
19006;SDS011;9636;47.382;8.480;2024-01-30T11:15:03;14.77;;;11.17;;
19006;SDS011;9636;47.382;8.480;2024-01-30T11:17:41;16.10;;;11.67;;
19006;SDS011;9636;47.382;8.480;2024-01-30T11:20:12;15.97;;;12.07;;
19006;SDS011;9636;47.382;8.480;2024-01-30T11:22:55;17.87;;;11.50;;
19006;SDS011;9636;47.382;8.480;2024-01-30T11:25:23;17.80;;;10.87;;
19006;SDS011;9636;47.382;8.480;2024-01-30T11:27:51;17.10;;;10.80;;
19006;SDS011;9636;47.382;8.480;2024-01-30T11:30:22;16.87;;;10.57;;
19006;SDS011;9636;47.382;8.480;2024-01-30T11:33:00;15.83;;;10.73;;
19006;SDS011;9636;47.382;8.480;2024-01-30T11:35:29;16.73;;;10.93;;
19006;SDS011;9636;47.382;8.480;2024-01-30T11:37:59;18.27;;;11.07;;
19006;SDS011;9636;47.382;8.480;2024-01-30T11:40:27;17.63;;;11.37;;
19006;SDS011;9636;47.382;8.480;2024-01-30T11:42:55;12.90;;;10.17;;
19006;SDS011;9636;47.382;8.480;2024-01-30T11:45:22;15.10;;;10.87;;
19006;SDS011;9636;47.382;8.480;2024-01-30T11:47:49;14.60;;;10.23;;
19006;SDS011;9636;47.382;8.480;2024-01-30T11:50:15;16.93;;;10.60;;
19006;SDS011;9636;47.382;8.480;2024-01-30T11:52:43;15.97;;;10.87;;
19006;SDS011;9636;47.382;8.480;2024-01-30T11:55:11;14.67;;;11.43;;
19006;SDS011;9636;47.382;8.480;2024-01-30T11:57:39;14.67;;;11.17;;
19006;SDS011;9636;47.382;8.480;2024-01-30T12:00:06;15.00;;;11.17;;
19006;SDS011;9636;47.382;8.480;2024-01-30T12:02:41;16.87;;;11.43;;
19006;SDS011;9636;47.382;8.480;2024-01-30T12:05:08;15.13;;;10.87;;
19006;SDS011;9636;47.382;8.480;2024-01-30T12:07:35;13.82;;;10.90;;
19006;SDS011;9636;47.382;8.480;2024-01-30T12:10:02;15.73;;;11.40;;
19006;SDS011;9636;47.382;8.480;2024-01-30T12:12:32;22.17;;;12.40;;
19006;SDS011;9636;47.382;8.480;2024-01-30T12:14:58;16.05;;;12.50;;
19006;SDS011;9636;47.382;8.480;2024-01-30T12:17:28;13.27;;;10.93;;
19006;SDS011;9636;47.382;8.480;2024-01-30T12:20:05;16.95;;;11.70;;
19006;SDS011;9636;47.382;8.480;2024-01-30T12:22:33;25.10;;;12.00;;
19006;SDS011;9636;47.382;8.480;2024-01-30T12:25:04;18.83;;;12.00;;
19006;SDS011;9636;47.382;8.480;2024-01-30T12:27:32;16.53;;;11.77;;
19006;SDS011;9636;47.382;8.480;2024-01-30T12:29:59;13.13;;;11.23;;
19006;SDS011;9636;47.382;8.480;2024-01-30T12:32:26;16.50;;;11.97;;
19006;SDS011;9636;47.382;8.480;2024-01-30T12:34:54;22.67;;;12.93;;
19006;SDS011;9636;47.382;8.480;2024-01-30T12:37:22;16.43;;;11.93;;
19006;SDS011;9636;47.382;8.480;2024-01-30T12:39:49;17.00;;;11.23;;
19006;SDS011;9636;47.382;8.480;2024-01-30T12:42:18;15.95;;;11.30;;
19006;SDS011;9636;47.382;8.480;2024-01-30T12:44:47;16.38;;;11.75;;
19006;SDS011;9636;47.382;8.480;2024-01-30T12:47:14;14.73;;;11.88;;
19006;SDS011;9636;47.382;8.480;2024-01-30T12:49:42;16.60;;;10.95;;
19006;SDS011;9636;47.382;8.480;2024-01-30T12:52:09;15.07;;;10.35;;
19006;SDS011;9636;47.382;8.480;2024-01-30T12:54:36;19.55;;;11.23;;
19006;SDS011;9636;47.382;8.480;2024-01-30T12:57:04;16.33;;;11.68;;
19006;SDS011;9636;47.382;8.480;2024-01-30T12:59:31;17.45;;;11.65;;
19006;SDS011;9636;47.382;8.480;2024-01-30T13:01:59;18.08;;;10.50;;
19006;SDS011;9636;47.382;8.480;2024-01-30T13:04:27;13.35;;;10.75;;
19006;SDS011;9636;47.382;8.480;2024-01-30T13:06:53;18.77;;;12.00;;
19006;SDS011;9636;47.382;8.480;2024-01-30T13:09:20;13.43;;;10.52;;
19006;SDS011;9636;47.382;8.480;2024-01-30T13:11:48;14.38;;;10.82;;
19006;SDS011;9636;47.382;8.480;2024-01-30T13:14:16;15.60;;;11.55;;
19006;SDS011;9636;47.382;8.480;2024-01-30T13:16:42;15.88;;;11.80;;
19006;SDS011;9636;47.382;8.480;2024-01-30T13:19:11;13.32;;;11.10;;
19006;SDS011;9636;47.382;8.480;2024-01-30T13:21:37;13.25;;;10.02;;
19006;SDS011;9636;47.382;8.480;2024-01-30T13:24:05;19.05;;;10.48;;
19006;SDS011;9636;47.382;8.480;2024-01-30T13:26:32;14.45;;;10.93;;
19006;SDS011;9636;47.382;8.480;2024-01-30T13:28:59;16.75;;;10.65;;
19006;SDS011;9636;47.382;8.480;2024-01-30T13:31:26;14.93;;;11.45;;
19006;SDS011;9636;47.382;8.480;2024-01-30T13:33:53;16.20;;;11.65;;
19006;SDS011;9636;47.382;8.480;2024-01-30T13:36:21;16.10;;;11.70;;
19006;SDS011;9636;47.382;8.480;2024-01-30T13:38:48;15.82;;;11.63;;
19006;SDS011;9636;47.382;8.480;2024-01-30T13:41:15;14.25;;;11.05;;
19006;SDS011;9636;47.382;8.480;2024-01-30T13:43:43;13.10;;;9.30;;
19006;SDS011;9636;47.382;8.480;2024-01-30T13:46:10;10.27;;;7.67;;
19006;SDS011;9636;47.382;8.480;2024-01-30T13:48:37;10.77;;;7.57;;
19006;SDS011;9636;47.382;8.480;2024-01-30T13:51:04;13.13;;;9.70;;
19006;SDS011;9636;47.382;8.480;2024-01-30T13:53:32;14.33;;;9.60;;
19006;SDS011;9636;47.382;8.480;2024-01-30T13:55:59;15.27;;;9.40;;
19006;SDS011;9636;47.382;8.480;2024-01-30T13:58:25;11.10;;;8.73;;
19006;SDS011;9636;47.382;8.480;2024-01-30T14:00:52;13.83;;;9.10;;
19006;SDS011;9636;47.382;8.480;2024-01-30T14:03:20;12.80;;;7.90;;
19006;SDS011;9636;47.382;8.480;2024-01-30T14:05:46;13.87;;;7.97;;
19006;SDS011;9636;47.382;8.480;2024-01-30T14:08:13;12.20;;;7.80;;
19006;SDS011;9636;47.382;8.480;2024-01-30T14:10:42;10.63;;;8.00;;
19006;SDS011;9636;47.382;8.480;2024-01-30T14:13:09;11.00;;;7.73;;
19006;SDS011;9636;47.382;8.480;2024-01-30T14:15:36;11.47;;;8.70;;
19006;SDS011;9636;47.382;8.480;2024-01-30T14:18:03;10.70;;;7.97;;
19006;SDS011;9636;47.382;8.480;2024-01-30T14:20:33;10.10;;;7.17;;
19006;SDS011;9636;47.382;8.480;2024-01-30T14:23:00;14.47;;;8.00;;
19006;SDS011;9636;47.382;8.480;2024-01-30T14:25:27;12.63;;;8.00;;
19006;SDS011;9636;47.382;8.480;2024-01-30T14:27:55;13.77;;;7.57;;
19006;SDS011;9636;47.382;8.480;2024-01-30T14:30:21;13.23;;;7.83;;
19006;SDS011;9636;47.382;8.480;2024-01-30T14:32:48;11.53;;;7.97;;
19006;SDS011;9636;47.382;8.480;2024-01-30T14:35:15;10.73;;;8.00;;
19006;SDS011;9636;47.382;8.480;2024-01-30T14:37:42;12.53;;;7.70;;
19006;SDS011;9636;47.382;8.480;2024-01-30T14:40:09;11.63;;;7.57;;
19006;SDS011;9636;47.382;8.480;2024-01-30T14:42:36;11.90;;;7.90;;
19006;SDS011;9636;47.382;8.480;2024-01-30T14:45:05;14.87;;;7.97;;
19006;SDS011;9636;47.382;8.480;2024-01-30T14:47:32;12.03;;;8.37;;
19006;SDS011;9636;47.382;8.480;2024-01-30T14:50:00;11.23;;;8.17;;
19006;SDS011;9636;47.382;8.480;2024-01-30T14:52:27;12.43;;;8.47;;
19006;SDS011;9636;47.382;8.480;2024-01-30T14:54:54;14.90;;;8.33;;
19006;SDS011;9636;47.382;8.480;2024-01-30T14:57:21;17.80;;;8.00;;
19006;SDS011;9636;47.382;8.480;2024-01-30T14:59:47;13.30;;;8.57;;
19006;SDS011;9636;47.382;8.480;2024-01-30T15:02:16;13.33;;;8.40;;
19006;SDS011;9636;47.382;8.480;2024-01-30T15:04:42;11.77;;;8.00;;
19006;SDS011;9636;47.382;8.480;2024-01-30T15:07:09;10.97;;;8.00;;
19006;SDS011;9636;47.382;8.480;2024-01-30T15:09:36;14.20;;;7.97;;
19006;SDS011;9636;47.382;8.480;2024-01-30T15:12:03;15.73;;;7.77;;
19006;SDS011;9636;47.382;8.480;2024-01-30T15:14:30;15.23;;;7.87;;
19006;SDS011;9636;47.382;8.480;2024-01-30T15:16:57;10.57;;;7.77;;
19006;SDS011;9636;47.382;8.480;2024-01-30T15:19:25;10.57;;;7.97;;
19006;SDS011;9636;47.382;8.480;2024-01-30T15:21:52;11.07;;;7.93;;
19006;SDS011;9636;47.382;8.480;2024-01-30T15:24:19;14.90;;;7.83;;
19006;SDS011;9636;47.382;8.480;2024-01-30T15:26:49;14.33;;;7.70;;
19006;SDS011;9636;47.382;8.480;2024-01-30T15:29:16;11.13;;;7.57;;
19006;SDS011;9636;47.382;8.480;2024-01-30T15:31:43;12.27;;;7.83;;
19006;SDS011;9636;47.382;8.480;2024-01-30T15:34:10;12.93;;;7.77;;
19006;SDS011;9636;47.382;8.480;2024-01-30T15:36:38;14.30;;;8.03;;
19006;SDS011;9636;47.382;8.480;2024-01-30T15:39:05;14.50;;;8.33;;
19006;SDS011;9636;47.382;8.480;2024-01-30T15:41:31;13.70;;;7.63;;
19006;SDS011;9636;47.382;8.480;2024-01-30T15:43:58;10.50;;;6.47;;
19006;SDS011;9636;47.382;8.480;2024-01-30T15:46:27;13.23;;;6.40;;
19006;SDS011;9636;47.382;8.480;2024-01-30T15:48:54;10.67;;;6.57;;
19006;SDS011;9636;47.382;8.480;2024-01-30T15:51:20;13.57;;;7.10;;
19006;SDS011;9636;47.382;8.480;2024-01-30T15:53:49;9.70;;;7.00;;
19006;SDS011;9636;47.382;8.480;2024-01-30T15:56:16;17.27;;;7.10;;
19006;SDS011;9636;47.382;8.480;2024-01-30T15:58:43;9.20;;;6.30;;
19006;SDS011;9636;47.382;8.480;2024-01-30T16:01:14;11.47;;;7.07;;
19006;SDS011;9636;47.382;8.480;2024-01-30T16:03:41;9.87;;;6.43;;
19006;SDS011;9636;47.382;8.480;2024-01-30T16:06:10;10.03;;;6.90;;
19006;SDS011;9636;47.382;8.480;2024-01-30T16:08:36;11.40;;;7.00;;
19006;SDS011;9636;47.382;8.480;2024-01-30T16:11:05;10.13;;;7.20;;
19006;SDS011;9636;47.382;8.480;2024-01-30T16:13:32;10.87;;;6.93;;
19006;SDS011;9636;47.382;8.480;2024-01-30T16:16:00;12.90;;;6.60;;
19006;SDS011;9636;47.382;8.480;2024-01-30T16:18:27;10.97;;;7.13;;
19006;SDS011;9636;47.382;8.480;2024-01-30T16:20:56;11.77;;;6.90;;
19006;SDS011;9636;47.382;8.480;2024-01-30T16:23:22;9.67;;;6.13;;
19006;SDS011;9636;47.382;8.480;2024-01-30T16:25:50;7.30;;;5.87;;
19006;SDS011;9636;47.382;8.480;2024-01-30T16:28:18;9.67;;;5.80;;
19006;SDS011;9636;47.382;8.480;2024-01-30T16:30:45;8.27;;;6.07;;
19006;SDS011;9636;47.382;8.480;2024-01-30T16:33:12;9.33;;;5.70;;
19006;SDS011;9636;47.382;8.480;2024-01-30T16:35:38;10.63;;;5.80;;
19006;SDS011;9636;47.382;8.480;2024-01-30T16:38:06;9.30;;;5.77;;
19006;SDS011;9636;47.382;8.480;2024-01-30T16:40:33;12.67;;;6.27;;
19006;SDS011;9636;47.382;8.480;2024-01-30T16:43:00;9.33;;;6.00;;
19006;SDS011;9636;47.382;8.480;2024-01-30T16:45:28;9.47;;;5.70;;
19006;SDS011;9636;47.382;8.480;2024-01-30T16:47:55;9.50;;;6.20;;
19006;SDS011;9636;47.382;8.480;2024-01-30T16:50:21;10.50;;;6.00;;
19006;SDS011;9636;47.382;8.480;2024-01-30T16:52:48;8.17;;;5.50;;
19006;SDS011;9636;47.382;8.480;2024-01-30T16:55:15;15.13;;;6.70;;
19006;SDS011;9636;47.382;8.480;2024-01-30T16:57:43;9.77;;;6.30;;
19006;SDS011;9636;47.382;8.480;2024-01-30T17:00:11;13.80;;;6.70;;
19006;SDS011;9636;47.382;8.480;2024-01-30T17:02:41;14.17;;;6.83;;
19006;SDS011;9636;47.382;8.480;2024-01-30T17:05:09;9.70;;;6.57;;
19006;SDS011;9636;47.382;8.480;2024-01-30T17:07:36;11.17;;;6.77;;
19006;SDS011;9636;47.382;8.480;2024-01-30T17:10:02;14.60;;;7.57;;
19006;SDS011;9636;47.382;8.480;2024-01-30T17:12:30;11.73;;;7.10;;
19006;SDS011;9636;47.382;8.480;2024-01-30T17:17:36;11.23;;;7.17;;
19006;SDS011;9636;47.382;8.480;2024-01-30T17:20:05;12.07;;;7.43;;
19006;SDS011;9636;47.382;8.480;2024-01-30T17:22:33;13.30;;;7.40;;
19006;SDS011;9636;47.382;8.480;2024-01-30T17:24:59;11.33;;;7.97;;
19006;SDS011;9636;47.382;8.480;2024-01-30T17:27:26;11.37;;;7.80;;
19006;SDS011;9636;47.382;8.480;2024-01-30T17:29:53;10.30;;;7.40;;
19006;SDS011;9636;47.382;8.480;2024-01-30T17:32:20;10.93;;;7.27;;
19006;SDS011;9636;47.382;8.480;2024-01-30T17:34:47;10.17;;;6.97;;
19006;SDS011;9636;47.382;8.480;2024-01-30T17:37:15;9.47;;;6.70;;
19006;SDS011;9636;47.382;8.480;2024-01-30T17:39:42;11.13;;;6.50;;
19006;SDS011;9636;47.382;8.480;2024-01-30T17:42:09;8.67;;;6.73;;
19006;SDS011;9636;47.382;8.480;2024-01-30T17:44:36;12.10;;;7.17;;
19006;SDS011;9636;47.382;8.480;2024-01-30T17:47:05;10.43;;;6.60;;
19006;SDS011;9636;47.382;8.480;2024-01-30T17:49:32;12.37;;;6.87;;
19006;SDS011;9636;47.382;8.480;2024-01-30T17:51:59;11.40;;;6.63;;
19006;SDS011;9636;47.382;8.480;2024-01-30T17:54:27;11.13;;;6.57;;
19006;SDS011;9636;47.382;8.480;2024-01-30T17:56:54;12.70;;;7.20;;
19006;SDS011;9636;47.382;8.480;2024-01-30T17:59:21;11.80;;;6.97;;
19006;SDS011;9636;47.382;8.480;2024-01-30T18:01:48;10.13;;;6.83;;
19006;SDS011;9636;47.382;8.480;2024-01-30T18:04:15;11.60;;;7.27;;
19006;SDS011;9636;47.382;8.480;2024-01-30T18:06:43;9.77;;;7.40;;
19006;SDS011;9636;47.382;8.480;2024-01-30T18:09:14;11.43;;;6.77;;
19006;SDS011;9636;47.382;8.480;2024-01-30T18:11:41;11.20;;;7.30;;
19006;SDS011;9636;47.382;8.480;2024-01-30T18:14:08;11.40;;;7.37;;
19006;SDS011;9636;47.382;8.480;2024-01-30T18:16:35;9.77;;;7.20;;
19006;SDS011;9636;47.382;8.480;2024-01-30T18:19:02;12.93;;;7.40;;
19006;SDS011;9636;47.382;8.480;2024-01-30T18:21:28;12.63;;;7.73;;
19006;SDS011;9636;47.382;8.480;2024-01-30T18:23:55;11.13;;;7.03;;
19006;SDS011;9636;47.382;8.480;2024-01-30T18:26:22;11.40;;;7.30;;
19006;SDS011;9636;47.382;8.480;2024-01-30T18:28:52;11.77;;;7.37;;
19006;SDS011;9636;47.382;8.480;2024-01-30T18:31:21;13.20;;;7.60;;
19006;SDS011;9636;47.382;8.480;2024-01-30T18:33:48;10.50;;;7.17;;
19006;SDS011;9636;47.382;8.480;2024-01-30T18:36:16;11.67;;;6.73;;
19006;SDS011;9636;47.382;8.480;2024-01-30T18:38:43;12.93;;;7.53;;
19006;SDS011;9636;47.382;8.480;2024-01-30T18:41:10;9.97;;;7.37;;
19006;SDS011;9636;47.382;8.480;2024-01-30T18:43:37;12.67;;;8.30;;
19006;SDS011;9636;47.382;8.480;2024-01-30T18:46:06;11.97;;;8.47;;
19006;SDS011;9636;47.382;8.480;2024-01-30T18:48:34;12.30;;;7.83;;
19006;SDS011;9636;47.382;8.480;2024-01-30T18:51:01;11.60;;;8.03;;
19006;SDS011;9636;47.382;8.480;2024-01-30T18:53:28;10.60;;;7.87;;
19006;SDS011;9636;47.382;8.480;2024-01-30T18:55:55;14.30;;;8.50;;
19006;SDS011;9636;47.382;8.480;2024-01-30T18:58:22;13.23;;;8.70;;
19006;SDS011;9636;47.382;8.480;2024-01-30T19:00:49;12.27;;;8.13;;
19006;SDS011;9636;47.382;8.480;2024-01-30T19:03:17;12.80;;;8.50;;
19006;SDS011;9636;47.382;8.480;2024-01-30T19:05:44;13.73;;;8.03;;
19006;SDS011;9636;47.382;8.480;2024-01-30T19:08:11;13.33;;;8.37;;
19006;SDS011;9636;47.382;8.480;2024-01-30T19:10:39;11.60;;;7.97;;
19006;SDS011;9636;47.382;8.480;2024-01-30T19:13:06;12.03;;;8.53;;
19006;SDS011;9636;47.382;8.480;2024-01-30T19:15:33;12.30;;;8.27;;
19006;SDS011;9636;47.382;8.480;2024-01-30T19:18:00;15.20;;;8.90;;
19006;SDS011;9636;47.382;8.480;2024-01-30T19:20:29;15.13;;;8.53;;
19006;SDS011;9636;47.382;8.480;2024-01-30T19:22:56;15.77;;;9.13;;
19006;SDS011;9636;47.382;8.480;2024-01-30T19:25:23;15.47;;;8.87;;
19006;SDS011;9636;47.382;8.480;2024-01-30T19:27:50;14.90;;;8.53;;
19006;SDS011;9636;47.382;8.480;2024-01-30T19:30:17;14.43;;;8.90;;
19006;SDS011;9636;47.382;8.480;2024-01-30T19:32:44;14.27;;;8.07;;
19006;SDS011;9636;47.382;8.480;2024-01-30T19:35:11;12.97;;;7.73;;
19006;SDS011;9636;47.382;8.480;2024-01-30T19:37:40;12.70;;;7.80;;
19006;SDS011;9636;47.382;8.480;2024-01-30T19:40:07;10.80;;;8.03;;
19006;SDS011;9636;47.382;8.480;2024-01-30T19:42:35;14.63;;;8.27;;
19006;SDS011;9636;47.382;8.480;2024-01-30T19:45:02;15.33;;;8.57;;
19006;SDS011;9636;47.382;8.480;2024-01-30T19:47:30;12.77;;;7.23;;
19006;SDS011;9636;47.382;8.480;2024-01-30T19:49:56;12.87;;;7.60;;
19006;SDS011;9636;47.382;8.480;2024-01-30T19:52:23;10.27;;;7.53;;
19006;SDS011;9636;47.382;8.480;2024-01-30T19:54:51;11.73;;;7.90;;
19006;SDS011;9636;47.382;8.480;2024-01-30T19:57:18;14.23;;;8.10;;
19006;SDS011;9636;47.382;8.480;2024-01-30T19:59:45;12.50;;;8.10;;
19006;SDS011;9636;47.382;8.480;2024-01-30T20:02:12;11.57;;;7.77;;
19006;SDS011;9636;47.382;8.480;2024-01-30T20:04:43;12.70;;;8.27;;
19006;SDS011;9636;47.382;8.480;2024-01-30T20:07:11;15.57;;;8.60;;
19006;SDS011;9636;47.382;8.480;2024-01-30T20:09:38;13.17;;;8.80;;
19006;SDS011;9636;47.382;8.480;2024-01-30T20:12:07;12.30;;;8.77;;
19006;SDS011;9636;47.382;8.480;2024-01-30T20:14:34;14.67;;;9.23;;
19006;SDS011;9636;47.382;8.480;2024-01-30T20:17:01;13.40;;;8.77;;
19006;SDS011;9636;47.382;8.480;2024-01-30T20:19:27;13.50;;;9.07;;
19006;SDS011;9636;47.382;8.480;2024-01-30T20:21:54;11.97;;;8.33;;
19006;SDS011;9636;47.382;8.480;2024-01-30T20:24:21;15.00;;;8.27;;
19006;SDS011;9636;47.382;8.480;2024-01-30T20:26:48;15.40;;;9.40;;
19006;SDS011;9636;47.382;8.480;2024-01-30T20:29:16;14.67;;;9.53;;
19006;SDS011;9636;47.382;8.480;2024-01-30T20:31:44;14.43;;;9.13;;
19006;SDS011;9636;47.382;8.480;2024-01-30T20:34:11;15.13;;;9.60;;
19006;SDS011;9636;47.382;8.480;2024-01-30T20:36:40;17.23;;;9.53;;
19006;SDS011;9636;47.382;8.480;2024-01-30T20:39:08;17.50;;;9.80;;
19006;SDS011;9636;47.382;8.480;2024-01-30T20:41:37;15.53;;;10.13;;
19006;SDS011;9636;47.382;8.480;2024-01-30T20:44:04;13.17;;;9.47;;
19006;SDS011;9636;47.382;8.480;2024-01-30T20:46:32;18.67;;;10.30;;
19006;SDS011;9636;47.382;8.480;2024-01-30T20:48:59;17.83;;;10.93;;
19006;SDS011;9636;47.382;8.480;2024-01-30T20:51:26;21.03;;;10.70;;
19006;SDS011;9636;47.382;8.480;2024-01-30T20:53:53;16.00;;;9.93;;
19006;SDS011;9636;47.382;8.480;2024-01-30T20:56:21;18.63;;;10.20;;
19006;SDS011;9636;47.382;8.480;2024-01-30T20:58:48;21.70;;;10.83;;
19006;SDS011;9636;47.382;8.480;2024-01-30T21:01:15;16.40;;;10.03;;
19006;SDS011;9636;47.382;8.480;2024-01-30T21:03:43;15.23;;;9.90;;
19006;SDS011;9636;47.382;8.480;2024-01-30T21:06:11;17.53;;;9.67;;
19006;SDS011;9636;47.382;8.480;2024-01-30T21:08:39;17.90;;;9.27;;
19006;SDS011;9636;47.382;8.480;2024-01-30T21:11:07;13.67;;;8.20;;
19006;SDS011;9636;47.382;8.480;2024-01-30T21:13:34;13.10;;;8.50;;
19006;SDS011;9636;47.382;8.480;2024-01-30T21:16:01;11.83;;;8.30;;
19006;SDS011;9636;47.382;8.480;2024-01-30T21:18:27;12.90;;;8.37;;
19006;SDS011;9636;47.382;8.480;2024-01-30T21:20:56;14.13;;;8.33;;
19006;SDS011;9636;47.382;8.480;2024-01-30T21:23:23;14.53;;;8.60;;
19006;SDS011;9636;47.382;8.480;2024-01-30T21:25:50;13.23;;;8.67;;
19006;SDS011;9636;47.382;8.480;2024-01-30T21:28:17;12.43;;;8.83;;
19006;SDS011;9636;47.382;8.480;2024-01-30T21:30:45;12.70;;;8.40;;
19006;SDS011;9636;47.382;8.480;2024-01-30T21:33:12;13.50;;;8.33;;
19006;SDS011;9636;47.382;8.480;2024-01-30T21:35:39;14.53;;;7.77;;
19006;SDS011;9636;47.382;8.480;2024-01-30T21:38:07;12.07;;;7.93;;
19006;SDS011;9636;47.382;8.480;2024-01-30T21:40:34;14.93;;;8.30;;
19006;SDS011;9636;47.382;8.480;2024-01-30T21:43:01;12.27;;;7.90;;
19006;SDS011;9636;47.382;8.480;2024-01-30T21:45:27;16.10;;;8.33;;
19006;SDS011;9636;47.382;8.480;2024-01-30T21:47:54;11.40;;;8.00;;
19006;SDS011;9636;47.382;8.480;2024-01-30T21:50:21;11.87;;;7.70;;
19006;SDS011;9636;47.382;8.480;2024-01-30T21:52:48;17.20;;;8.50;;
19006;SDS011;9636;47.382;8.480;2024-01-30T21:55:16;14.30;;;7.97;;
19006;SDS011;9636;47.382;8.480;2024-01-30T21:57:43;9.93;;;7.83;;
19006;SDS011;9636;47.382;8.480;2024-01-30T22:00:10;13.27;;;8.10;;
19006;SDS011;9636;47.382;8.480;2024-01-30T22:02:37;13.00;;;8.57;;
19006;SDS011;9636;47.382;8.480;2024-01-30T22:05:04;13.93;;;8.60;;
19006;SDS011;9636;47.382;8.480;2024-01-30T22:07:32;13.97;;;9.13;;
19006;SDS011;9636;47.382;8.480;2024-01-30T22:09:59;17.57;;;8.80;;
19006;SDS011;9636;47.382;8.480;2024-01-30T22:12:29;15.13;;;9.67;;
19006;SDS011;9636;47.382;8.480;2024-01-30T22:14:56;15.13;;;9.37;;
19006;SDS011;9636;47.382;8.480;2024-01-30T22:17:23;15.10;;;9.23;;
19006;SDS011;9636;47.382;8.480;2024-01-30T22:19:49;13.60;;;9.00;;
19006;SDS011;9636;47.382;8.480;2024-01-30T22:22:16;12.77;;;8.40;;
19006;SDS011;9636;47.382;8.480;2024-01-30T22:24:43;13.67;;;8.03;;
19006;SDS011;9636;47.382;8.480;2024-01-30T22:27:10;13.83;;;7.83;;
19006;SDS011;9636;47.382;8.480;2024-01-30T22:29:39;15.10;;;8.13;;
19006;SDS011;9636;47.382;8.480;2024-01-30T22:32:06;13.37;;;8.57;;
19006;SDS011;9636;47.382;8.480;2024-01-30T22:34:33;14.73;;;8.37;;
19006;SDS011;9636;47.382;8.480;2024-01-30T22:36:59;12.97;;;8.83;;
19006;SDS011;9636;47.382;8.480;2024-01-30T22:39:27;15.20;;;9.07;;
19006;SDS011;9636;47.382;8.480;2024-01-30T22:41:53;12.70;;;9.30;;
19006;SDS011;9636;47.382;8.480;2024-01-30T22:44:20;12.80;;;8.70;;
19006;SDS011;9636;47.382;8.480;2024-01-30T22:46:48;12.93;;;8.90;;
19006;SDS011;9636;47.382;8.480;2024-01-30T22:49:15;11.63;;;7.93;;
19006;SDS011;9636;47.382;8.480;2024-01-30T22:51:42;13.80;;;8.63;;
19006;SDS011;9636;47.382;8.480;2024-01-30T22:54:14;15.10;;;7.87;;
19006;SDS011;9636;47.382;8.480;2024-01-30T22:56:41;13.23;;;7.93;;
19006;SDS011;9636;47.382;8.480;2024-01-30T22:59:08;11.60;;;7.43;;
19006;SDS011;9636;47.382;8.480;2024-01-30T23:01:35;11.23;;;7.27;;
19006;SDS011;9636;47.382;8.480;2024-01-30T23:04:06;14.23;;;8.50;;
19006;SDS011;9636;47.382;8.480;2024-01-30T23:06:32;10.70;;;7.63;;
19006;SDS011;9636;47.382;8.480;2024-01-30T23:08:59;11.93;;;7.80;;
19006;SDS011;9636;47.382;8.480;2024-01-30T23:11:26;14.67;;;8.57;;
19006;SDS011;9636;47.382;8.480;2024-01-30T23:13:53;11.27;;;7.60;;
19006;SDS011;9636;47.382;8.480;2024-01-30T23:16:19;13.73;;;8.13;;
19006;SDS011;9636;47.382;8.480;2024-01-30T23:18:46;13.10;;;7.97;;
19006;SDS011;9636;47.382;8.480;2024-01-30T23:21:16;11.13;;;7.83;;
19006;SDS011;9636;47.382;8.480;2024-01-30T23:23:42;12.40;;;8.90;;
19006;SDS011;9636;47.382;8.480;2024-01-30T23:26:09;12.77;;;8.50;;
19006;SDS011;9636;47.382;8.480;2024-01-30T23:28:35;17.43;;;8.90;;
19006;SDS011;9636;47.382;8.480;2024-01-30T23:31:02;16.17;;;9.30;;
19006;SDS011;9636;47.382;8.480;2024-01-30T23:33:29;13.50;;;9.23;;
19006;SDS011;9636;47.382;8.480;2024-01-30T23:35:56;14.37;;;8.87;;
19006;SDS011;9636;47.382;8.480;2024-01-30T23:38:24;13.63;;;8.53;;
19006;SDS011;9636;47.382;8.480;2024-01-30T23:40:51;13.87;;;9.00;;
19006;SDS011;9636;47.382;8.480;2024-01-30T23:43:18;15.20;;;8.93;;
19006;SDS011;9636;47.382;8.480;2024-01-30T23:45:44;14.63;;;9.13;;
19006;SDS011;9636;47.382;8.480;2024-01-30T23:48:11;14.77;;;9.10;;
19006;SDS011;9636;47.382;8.480;2024-01-30T23:50:38;14.13;;;8.93;;
19006;SDS011;9636;47.382;8.480;2024-01-30T23:53:05;13.50;;;8.43;;
19006;SDS011;9636;47.382;8.480;2024-01-30T23:55:33;13.77;;;8.93;;
19006;SDS011;9636;47.382;8.480;2024-01-30T23:58:00;16.20;;;9.63;;
